createdAt,value
2023-03-12T00:01:19.816Z,47.13
2023-03-12T00:04:08.831Z,47.31
2023-03-12T00:06:57.558Z,47.30
2023-03-12T00:09:46.619Z,47.50
2023-03-12T00:12:35.560Z,47.46
2023-03-12T00:15:26.154Z,47.19
2023-03-12T00:18:17.182Z,47.21
2023-03-12T00:21:06.893Z,47.24
2023-03-12T00:23:55.908Z,47.16
2023-03-12T00:26:44.842Z,47.19
2023-03-12T00:29:33.509Z,47.39
2023-03-12T00:32:23.675Z,47.07
2023-03-12T00:35:12.532Z,47.58
2023-03-12T00:38:01.185Z,47.35
2023-03-12T00:40:49.846Z,47.03
2023-03-12T00:43:38.610Z,47.20
2023-03-12T00:46:27.788Z,47.16
2023-03-12T00:52:07.323Z,47.60
2023-03-12T00:54:58.796Z,47.57
2023-03-12T00:57:47.604Z,47.54
2023-03-12T01:00:36.465Z,47.60
2023-03-12T01:03:25.268Z,47.38
2023-03-12T01:06:15.350Z,47.44
2023-03-12T01:09:05.291Z,47.34
2023-03-12T01:11:54.074Z,47.20
2023-03-12T01:14:42.874Z,47.32
2023-03-12T01:17:31.554Z,47.64
2023-03-12T01:20:20.361Z,47.17
2023-03-12T01:23:10.712Z,47.25
2023-03-12T01:25:59.473Z,47.61
2023-03-12T01:28:48.289Z,47.25
2023-03-12T01:31:37.173Z,47.53
2023-03-12T01:34:25.877Z,47.72
2023-03-12T01:37:14.562Z,47.60
2023-03-12T01:40:05.625Z,47.48
2023-03-12T01:42:57.740Z,47.60
2023-03-12T01:46:02.947Z,47.43
2023-03-12T01:48:55.454Z,47.47
2023-03-12T01:51:46.796Z,47.62
2023-03-12T01:54:37.897Z,47.42
2023-03-12T01:57:32.338Z,47.62
2023-03-12T02:00:24.119Z,47.82
2023-03-12T02:03:13.777Z,47.51
2023-03-12T02:06:06.795Z,47.32
2023-03-12T02:08:55.867Z,47.60
2023-03-12T02:11:44.551Z,47.42
2023-03-12T02:14:35.033Z,47.48
2023-03-12T02:17:23.781Z,47.26
2023-03-12T02:20:17.369Z,47.79
2023-03-12T02:23:09.968Z,47.79
2023-03-12T02:26:00.477Z,47.62
2023-03-12T02:28:49.914Z,47.69
2023-03-12T02:31:42.925Z,47.75
2023-03-12T02:34:31.806Z,47.79
2023-03-12T02:37:21.253Z,47.58
2023-03-12T02:40:15.717Z,47.56
2023-03-12T02:43:08.173Z,47.97
2023-03-12T02:45:57.695Z,47.85
2023-03-12T02:48:46.309Z,47.55
2023-03-12T02:51:35.108Z,47.69
2023-03-12T02:54:24.404Z,47.65
2023-03-12T02:57:13.100Z,47.68
2023-03-12T03:00:04.316Z,47.54
2023-03-12T03:02:53.027Z,47.90
2023-03-12T03:05:41.704Z,47.96
2023-03-12T03:08:30.382Z,47.62
2023-03-12T03:11:19.150Z,47.89
2023-03-12T03:14:07.996Z,47.49
2023-03-12T03:16:58.021Z,48.17
2023-03-12T03:19:46.746Z,47.88
2023-03-12T03:22:35.398Z,47.88
2023-03-12T03:25:24.144Z,47.52
2023-03-12T03:28:12.779Z,47.37
2023-03-12T03:31:02.231Z,47.49
2023-03-12T03:33:52.634Z,47.81
2023-03-12T03:36:41.334Z,47.35
2023-03-12T03:39:30.438Z,47.24
2023-03-12T03:42:19.160Z,47.51
2023-03-12T03:45:09.720Z,47.66
2023-03-12T03:47:58.433Z,47.59
2023-03-12T03:50:48.698Z,47.75
2023-03-12T03:53:37.731Z,47.74
2023-03-12T03:56:26.478Z,47.60
2023-03-12T03:59:15.131Z,47.66
2023-03-12T04:02:03.795Z,47.64
2023-03-12T04:04:52.881Z,47.78
2023-03-12T04:07:43.171Z,47.55
2023-03-12T04:10:32.306Z,47.57
2023-03-12T04:13:21.169Z,47.81
2023-03-12T04:16:10.092Z,47.25
2023-03-12T04:18:58.837Z,47.37
2023-03-12T04:21:47.436Z,47.49
2023-03-12T04:24:37.861Z,47.69
2023-03-12T04:27:26.849Z,48.11
2023-03-12T04:30:16.234Z,47.86
2023-03-12T04:33:05.126Z,47.58
2023-03-12T04:35:54.420Z,47.79
2023-03-12T04:38:43.125Z,48.02
2023-03-12T04:41:33.249Z,48.09
2023-03-12T04:44:22.016Z,47.67
2023-03-12T04:47:10.792Z,48.02
2023-03-12T04:49:59.466Z,47.58
2023-03-12T04:52:48.147Z,47.79
2023-03-12T04:55:36.894Z,47.72
2023-03-12T04:58:27.231Z,47.83
2023-03-12T05:01:22.924Z,48.00
2023-03-12T05:04:11.896Z,47.74
2023-03-12T05:07:00.686Z,47.86
2023-03-12T05:09:49.623Z,47.47
2023-03-12T05:12:38.486Z,47.96
2023-03-12T05:15:28.770Z,47.89
2023-03-12T05:18:17.699Z,47.88
2023-03-12T05:21:09.174Z,47.75
2023-03-12T05:23:57.836Z,47.92
2023-03-12T05:26:46.574Z,47.93
2023-03-12T05:29:35.815Z,47.92
2023-03-12T05:32:25.855Z,47.94
2023-03-12T05:35:14.901Z,48.09
2023-03-12T05:38:03.593Z,47.76
2023-03-12T05:40:56.079Z,48.12
2023-03-12T05:43:44.683Z,47.93
2023-03-12T05:46:33.329Z,48.31
2023-03-12T05:49:23.819Z,47.83
2023-03-12T05:52:13.456Z,48.16
2023-03-12T05:55:02.460Z,47.84
2023-03-12T05:57:52.299Z,48.29
2023-03-12T06:00:42.124Z,48.18
2023-03-12T06:03:30.752Z,47.70
2023-03-12T06:06:21.588Z,48.15
2023-03-12T06:09:10.385Z,47.87
2023-03-12T06:11:59.023Z,48.14
2023-03-12T06:14:47.978Z,47.83
2023-03-12T06:17:36.929Z,47.61
2023-03-12T06:20:27.975Z,47.54
2023-03-12T06:23:20.354Z,47.76
2023-03-12T06:26:10.688Z,47.74
2023-03-12T06:28:59.433Z,47.54
2023-03-12T06:31:48.401Z,47.90
2023-03-12T06:34:37.360Z,47.91
2023-03-12T06:37:26.105Z,47.55
2023-03-12T06:40:16.397Z,47.75
2023-03-12T06:43:05.062Z,47.81
2023-03-12T06:45:53.984Z,47.54
2023-03-12T06:48:42.975Z,47.62
2023-03-12T06:51:32.805Z,47.60
2023-03-12T06:54:21.583Z,47.16
2023-03-12T06:57:11.919Z,47.48
2023-03-12T07:00:00.721Z,47.71
2023-03-12T07:02:49.559Z,47.67
2023-03-12T07:05:38.920Z,47.82
2023-03-12T07:08:31.014Z,47.45
2023-03-12T07:11:20.589Z,47.51
2023-03-12T07:14:10.646Z,47.67
2023-03-12T07:17:01.930Z,47.37
2023-03-12T07:19:50.717Z,47.42
2023-03-12T07:22:39.844Z,47.62
2023-03-12T07:25:28.610Z,46.39
2023-03-12T07:28:17.619Z,44.79
2023-03-12T07:31:07.873Z,45.37
2023-03-12T07:33:56.670Z,44.12
2023-03-12T07:36:45.667Z,43.86
2023-03-12T07:39:34.379Z,42.61
2023-03-12T07:42:23.190Z,42.26
2023-03-12T07:45:12.519Z,35.66
2023-03-12T07:48:06.833Z,36.97
2023-03-12T07:51:02.147Z,38.46
2023-03-12T07:53:50.856Z,39.07
2023-03-12T07:56:39.933Z,39.75
2023-03-12T07:59:28.943Z,40.00
2023-03-12T08:02:17.893Z,39.53
2023-03-12T08:05:09.251Z,39.05
2023-03-12T08:07:57.999Z,39.23
2023-03-12T08:10:46.747Z,40.33
2023-03-12T08:13:35.976Z,40.99
2023-03-12T08:16:24.803Z,41.29
2023-03-12T08:19:14.010Z,42.13
2023-03-12T08:22:04.311Z,42.01
2023-03-12T08:24:53.149Z,42.29
2023-03-12T08:27:41.889Z,42.56
2023-03-12T08:30:30.822Z,42.77
2023-03-12T08:33:19.888Z,42.61
2023-03-12T08:36:09.523Z,43.35
2023-03-12T08:39:02.353Z,43.25
2023-03-12T08:41:51.698Z,43.39
2023-03-12T08:44:40.416Z,43.14
2023-03-12T08:47:30.796Z,43.14
2023-03-12T08:50:22.304Z,42.36
2023-03-12T08:53:11.011Z,42.86
2023-03-12T08:56:01.893Z,43.19
2023-03-12T08:58:50.644Z,44.15
2023-03-12T09:01:41.686Z,43.28
2023-03-12T09:04:32.083Z,42.83
2023-03-12T09:07:22.306Z,41.92
2023-03-12T09:10:11.958Z,42.06
2023-03-12T09:13:04.880Z,42.05
2023-03-12T09:15:53.782Z,41.81
2023-03-12T09:18:42.582Z,41.78
2023-03-12T09:21:31.449Z,41.48
2023-03-12T09:24:20.133Z,41.42
2023-03-12T09:27:09.075Z,41.77
2023-03-12T09:30:00.953Z,41.39
2023-03-12T09:32:50.206Z,41.38
2023-03-12T09:35:39.331Z,41.19
2023-03-12T09:38:28.662Z,41.11
2023-03-12T09:41:20.560Z,40.85
2023-03-12T09:44:13.975Z,40.99
2023-03-12T09:47:06.759Z,41.61
2023-03-12T09:49:58.195Z,41.09
2023-03-12T09:52:51.961Z,40.78
2023-03-12T09:55:41.783Z,40.84
2023-03-12T09:58:36.049Z,40.69
2023-03-12T10:01:37.808Z,40.78
2023-03-12T10:04:52.363Z,40.67
2023-03-12T10:07:49.366Z,40.69
2023-03-12T10:10:52.769Z,40.38
2023-03-12T10:14:01.313Z,40.70
2023-03-12T10:16:56.388Z,40.65
2023-03-12T10:19:57.772Z,40.10
2023-03-12T10:22:52.586Z,40.69
2023-03-12T10:25:44.544Z,40.37
2023-03-12T10:28:37.835Z,40.09
2023-03-12T10:31:30.703Z,40.33
2023-03-12T10:34:22.543Z,40.01
2023-03-12T10:37:18.090Z,39.89
2023-03-12T10:40:09.292Z,39.75
2023-03-12T10:42:58.785Z,39.86
2023-03-12T10:45:52.214Z,39.95
2023-03-12T10:48:40.986Z,39.58
2023-03-12T10:51:30.017Z,39.95
2023-03-12T10:54:25.262Z,39.97
2023-03-12T10:57:15.905Z,40.03
2023-03-12T11:00:12.312Z,39.43
2023-03-12T11:03:03.521Z,39.71
2023-03-12T11:05:54.258Z,39.51
2023-03-12T11:08:43.533Z,39.37
2023-03-12T11:11:36.365Z,39.29
2023-03-12T11:14:28.038Z,39.32
2023-03-12T11:17:22.759Z,38.98
2023-03-12T11:20:25.635Z,39.14
2023-03-12T11:23:16.294Z,39.20
2023-03-12T11:26:07.397Z,38.82
2023-03-12T11:29:03.099Z,38.76
2023-03-12T11:31:59.493Z,39.12
2023-03-12T11:34:49.673Z,39.05
2023-03-12T11:37:44.399Z,39.03
2023-03-12T11:40:51.352Z,39.03
2023-03-12T11:43:52.073Z,39.29
2023-03-12T11:46:48.549Z,38.86
2023-03-12T11:49:49.235Z,39.22
2023-03-12T11:52:52.474Z,39.08
2023-03-12T11:55:50.797Z,38.92
2023-03-12T11:59:14.757Z,38.58
2023-03-12T12:02:15.320Z,38.72
2023-03-12T12:05:20.503Z,38.85
2023-03-12T12:08:29.613Z,38.80
2023-03-12T12:11:22.957Z,38.86
2023-03-12T12:14:19.008Z,38.29
2023-03-12T12:17:19.597Z,38.63
2023-03-12T12:20:23.133Z,38.21
2023-03-12T12:23:20.320Z,38.54
2023-03-12T12:26:12.627Z,38.05
2023-03-12T12:29:21.565Z,38.11
2023-03-12T12:32:15.407Z,38.44
2023-03-12T12:35:17.908Z,38.44
2023-03-12T12:38:11.984Z,38.37
2023-03-12T12:41:04.086Z,38.23
2023-03-12T12:43:54.877Z,38.31
2023-03-12T12:46:45.283Z,38.80
2023-03-12T12:49:41.301Z,38.37
2023-03-12T12:52:30.502Z,38.44
2023-03-12T12:55:22.028Z,38.11
2023-03-12T12:58:16.502Z,38.78
2023-03-12T13:01:05.492Z,38.77
2023-03-12T13:03:59.692Z,38.36
2023-03-12T13:06:58.265Z,38.47
2023-03-12T13:09:50.729Z,38.44
2023-03-12T13:12:48.550Z,38.26
2023-03-12T13:15:40.830Z,38.26
2023-03-12T13:18:31.407Z,37.79
2023-03-12T13:21:24.950Z,37.73
2023-03-12T13:24:21.509Z,37.84
2023-03-12T13:27:15.743Z,37.51
2023-03-12T13:30:37.756Z,37.74
2023-03-12T13:33:41.358Z,37.96
2023-03-12T13:36:30.756Z,38.10
2023-03-12T13:39:31.925Z,37.72
2023-03-12T13:42:39.403Z,37.43
2023-03-12T13:45:31.835Z,37.56
2023-03-12T13:48:21.569Z,37.53
2023-03-12T13:51:14.294Z,38.56
2023-03-12T13:54:04.578Z,39.81
2023-03-12T13:57:00.709Z,39.99
2023-03-12T13:59:51.393Z,40.22
2023-03-12T14:02:44.798Z,40.67
2023-03-12T14:05:34.893Z,40.19
2023-03-12T14:08:41.147Z,40.94
2023-03-12T14:11:46.657Z,41.16
2023-03-12T14:15:11.972Z,41.35
2023-03-12T14:18:02.933Z,41.65
2023-03-12T14:20:55.801Z,39.91
2023-03-12T14:23:48.623Z,40.82
2023-03-12T14:26:38.118Z,41.13
2023-03-12T14:29:28.967Z,41.02
2023-03-12T14:32:21.913Z,41.51
2023-03-12T14:35:18.837Z,41.02
2023-03-12T14:38:09.212Z,41.45
2023-03-12T14:41:02.481Z,41.74
2023-03-12T14:43:53.959Z,41.92
2023-03-12T14:46:57.943Z,41.90
2023-03-12T14:49:48.833Z,42.08
2023-03-12T14:52:37.650Z,42.18
2023-03-12T14:55:27.995Z,41.91
2023-03-12T14:58:20.003Z,41.87
2023-03-12T15:01:09.327Z,41.95
2023-03-12T15:04:01.642Z,42.33
2023-03-12T15:06:53.154Z,42.26
2023-03-12T15:09:44.437Z,42.65
2023-03-12T15:12:35.980Z,42.67
2023-03-12T15:15:39.147Z,42.81
2023-03-12T15:18:33.979Z,42.83
2023-03-12T15:21:26.620Z,42.78
2023-03-12T15:24:18.391Z,41.87
2023-03-12T15:27:21.611Z,42.05
2023-03-12T15:30:24.688Z,42.78
2023-03-12T15:33:31.156Z,42.53
2023-03-12T15:36:30.006Z,42.68
2023-03-12T15:39:29.915Z,42.71
2023-03-12T15:42:23.702Z,43.02
2023-03-12T15:45:20.680Z,42.73
2023-03-12T15:48:19.061Z,42.92
2023-03-12T15:51:14.663Z,43.62
2023-03-12T15:54:05.987Z,43.43
2023-03-12T15:56:56.566Z,43.31
2023-03-12T15:59:45.469Z,43.42
2023-03-12T16:02:44.675Z,43.05
2023-03-12T16:05:40.133Z,43.79
2023-03-12T16:08:32.522Z,43.23
2023-03-12T16:11:22.902Z,43.16
2023-03-12T16:14:18.335Z,43.24
2023-03-12T16:17:08.108Z,43.68
2023-03-12T16:19:57.333Z,43.43
2023-03-12T16:22:46.621Z,43.62
2023-03-12T16:25:35.669Z,43.67
2023-03-12T16:28:25.828Z,44.02
2023-03-12T16:31:17.351Z,43.82
2023-03-12T16:34:06.051Z,43.93
2023-03-12T16:36:54.917Z,44.28
2023-03-12T16:39:46.481Z,43.99
2023-03-12T16:42:35.138Z,44.34
2023-03-12T16:45:27.769Z,43.83
2023-03-12T16:48:20.310Z,43.86
2023-03-12T16:51:15.453Z,44.25
2023-03-12T16:54:10.838Z,44.00
2023-03-12T16:57:00.470Z,44.20
2023-03-12T16:59:49.140Z,44.26
2023-03-12T17:02:38.201Z,45.07
2023-03-12T17:05:29.674Z,44.70
2023-03-12T17:08:18.362Z,44.33
2023-03-12T17:11:17.806Z,43.07
2023-03-12T17:14:17.295Z,43.07
2023-03-12T17:17:06.018Z,43.50
2023-03-12T17:19:55.625Z,44.52
2023-03-12T17:22:46.116Z,44.44
2023-03-12T17:25:36.748Z,44.78
2023-03-12T17:28:25.503Z,44.44
2023-03-12T17:31:14.589Z,44.57
2023-03-12T17:34:04.005Z,44.23
2023-03-12T17:36:52.736Z,44.48
2023-03-12T17:39:42.842Z,44.70
2023-03-12T17:42:31.963Z,44.65
2023-03-12T17:45:20.802Z,44.45
2023-03-12T17:48:09.643Z,44.64
2023-03-12T17:50:58.676Z,44.93
2023-03-12T17:54:05.191Z,44.72
2023-03-12T17:56:55.439Z,44.70
2023-03-12T17:59:44.052Z,44.79
2023-03-12T18:02:32.718Z,44.48
2023-03-12T18:05:21.382Z,44.36
2023-03-12T18:08:10.130Z,43.95
2023-03-12T18:10:58.937Z,44.32
2023-03-12T18:13:50.161Z,44.24
2023-03-12T18:16:39.220Z,44.10
2023-03-12T18:19:29.300Z,43.70
2023-03-12T18:22:19.697Z,43.91
2023-03-12T18:25:09.742Z,44.17
2023-03-12T18:27:58.483Z,44.39
2023-03-12T18:30:49.066Z,44.33
2023-03-12T18:33:41.852Z,44.19
2023-03-12T18:36:30.608Z,44.48
2023-03-12T18:39:19.429Z,44.43
2023-03-12T18:42:08.289Z,44.32
2023-03-12T18:44:56.924Z,44.57
2023-03-12T18:47:50.380Z,44.16
2023-03-12T18:50:39.938Z,44.06
2023-03-12T18:53:30.453Z,44.05
2023-03-12T18:56:19.724Z,44.42
2023-03-12T18:59:09.699Z,44.23
2023-03-12T19:01:59.015Z,44.19
2023-03-12T19:04:50.200Z,44.13
2023-03-12T19:07:42.073Z,44.31
2023-03-12T19:10:30.907Z,44.42
2023-03-12T19:13:19.508Z,44.45
2023-03-12T19:16:10.359Z,44.43
2023-03-12T19:19:00.115Z,44.47
2023-03-12T19:21:50.348Z,45.01
2023-03-12T19:24:39.052Z,45.10
2023-03-12T19:27:29.477Z,44.82
2023-03-12T19:30:18.544Z,44.28
2023-03-12T19:33:07.298Z,43.42
2023-03-12T19:35:56.364Z,44.17
2023-03-12T19:38:46.373Z,43.85
2023-03-12T19:41:36.846Z,43.81
2023-03-12T19:44:25.597Z,43.53
2023-03-12T19:47:18.170Z,44.10
2023-03-12T19:50:08.002Z,43.59
2023-03-12T19:52:56.620Z,43.25
2023-03-12T19:55:49.462Z,43.39
2023-03-12T19:58:38.213Z,44.22
2023-03-12T20:01:26.882Z,44.43
2023-03-12T20:04:15.536Z,44.47
2023-03-12T20:07:04.106Z,43.90
2023-03-12T20:09:52.806Z,44.08
2023-03-12T20:12:43.312Z,41.96
2023-03-12T20:15:32.297Z,42.95
2023-03-12T20:18:22.070Z,42.71
2023-03-12T20:21:11.181Z,42.93
2023-03-12T20:24:02.231Z,42.95
2023-03-12T20:26:50.866Z,43.10
2023-03-12T20:29:43.448Z,43.10
2023-03-12T20:32:32.311Z,42.44
2023-03-12T20:35:25.733Z,42.06
2023-03-12T20:38:15.778Z,42.46
2023-03-12T20:41:05.452Z,43.22
2023-03-12T20:43:57.353Z,43.23
2023-03-12T20:46:48.122Z,43.50
2023-03-12T20:49:37.653Z,43.36
2023-03-12T20:52:27.339Z,43.76
2023-03-12T20:55:16.296Z,44.54
2023-03-12T20:58:07.923Z,45.00
2023-03-12T21:00:59.820Z,45.23
2023-03-12T21:03:49.951Z,45.91
2023-03-12T21:06:38.738Z,45.88
2023-03-12T21:09:27.489Z,45.81
2023-03-12T21:12:16.537Z,46.13
2023-03-12T21:15:07.353Z,45.77
2023-03-12T21:17:56.465Z,45.67
2023-03-12T21:20:46.849Z,45.59
2023-03-12T21:23:36.526Z,45.46
2023-03-12T21:26:25.742Z,45.94
2023-03-12T21:29:15.190Z,46.22
2023-03-12T21:32:03.855Z,46.28
2023-03-12T21:34:53.231Z,46.06
2023-03-12T21:37:45.925Z,46.58
2023-03-12T21:40:34.805Z,46.35
2023-03-12T21:43:27.733Z,46.58
2023-03-12T21:46:20.061Z,46.53
2023-03-12T21:49:09.406Z,46.15
2023-03-12T21:51:58.645Z,46.32
2023-03-12T21:54:50.036Z,46.36
2023-03-12T21:57:38.816Z,46.42
2023-03-12T22:00:30.777Z,46.43
2023-03-12T22:03:19.424Z,46.72
2023-03-12T22:06:08.658Z,46.33
2023-03-12T22:08:58.438Z,46.48
2023-03-12T22:11:49.188Z,46.45
2023-03-12T22:14:37.888Z,46.91
2023-03-12T22:17:26.602Z,46.32
2023-03-12T22:20:15.226Z,46.43
2023-03-12T22:23:03.949Z,46.64
2023-03-12T22:25:52.754Z,46.95
2023-03-12T22:28:43.055Z,46.67
2023-03-12T22:31:32.043Z,46.76
2023-03-12T22:34:20.743Z,46.92
2023-03-12T22:37:09.385Z,46.77
2023-03-12T22:40:01.561Z,47.35
2023-03-12T22:42:56.157Z,46.88
2023-03-12T22:45:46.223Z,46.99
2023-03-12T22:48:35.381Z,46.76
2023-03-12T22:51:24.104Z,46.99
2023-03-12T22:54:12.736Z,47.06
2023-03-12T22:57:02.788Z,46.92
2023-03-12T22:59:51.424Z,46.89
2023-03-12T23:02:41.548Z,46.48
2023-03-12T23:05:30.188Z,46.66
2023-03-12T23:08:18.981Z,47.17
2023-03-12T23:11:08.893Z,47.20
2023-03-12T23:13:57.606Z,47.05
2023-03-12T23:16:46.331Z,46.90
2023-03-12T23:19:36.503Z,46.80
2023-03-12T23:22:25.152Z,46.77
2023-03-12T23:25:13.782Z,47.19
2023-03-12T23:28:02.449Z,47.03
2023-03-12T23:30:57.670Z,46.94
2023-03-12T23:33:46.708Z,46.99
2023-03-12T23:36:37.092Z,47.40
2023-03-12T23:39:25.772Z,47.23
2023-03-12T23:42:14.456Z,47.25
2023-03-12T23:45:03.135Z,47.26
2023-03-12T23:47:51.786Z,47.31
2023-03-12T23:50:41.182Z,47.26
2023-03-12T23:53:31.426Z,47.48
2023-03-12T23:56:21.544Z,47.17
2023-03-12T23:59:11.477Z,47.15
